createdAt,value
2023-04-29T00:01:39.724Z,10.16
2023-04-29T00:04:07.073Z,10.24
2023-04-29T00:06:34.238Z,10.28
2023-04-29T00:09:01.268Z,10.19
2023-04-29T00:11:28.364Z,10.23
2023-04-29T00:13:55.508Z,10.20
2023-04-29T00:16:23.273Z,10.20
2023-04-29T00:18:51.164Z,10.21
2023-04-29T00:21:18.262Z,10.30
2023-04-29T00:23:46.003Z,10.24
2023-04-29T00:26:13.110Z,10.11
2023-04-29T00:28:40.216Z,10.21
2023-04-29T00:31:07.597Z,10.21
2023-04-29T00:33:34.820Z,10.32
2023-04-29T00:36:02.238Z,10.05
2023-04-29T00:38:29.457Z,10.08
2023-04-29T00:40:57.034Z,10.07
2023-04-29T00:43:24.807Z,10.06
2023-04-29T00:45:52.330Z,10.08
2023-04-29T00:48:19.605Z,10.09
2023-04-29T00:50:46.772Z,10.19
2023-04-29T00:53:14.341Z,10.14
2023-04-29T00:55:43.875Z,10.12
2023-04-29T00:58:11.786Z,10.13
2023-04-29T01:00:39.111Z,10.08
2023-04-29T01:03:06.454Z,9.96
2023-04-29T01:05:33.756Z,10.01
2023-04-29T01:08:59.782Z,9.99
2023-04-29T01:11:34.849Z,10.14
2023-04-29T01:14:03.498Z,10.08
2023-04-29T01:16:35.051Z,9.97
2023-04-29T01:19:12.537Z,9.91
2023-04-29T01:21:48.701Z,9.96
2023-04-29T01:24:16.459Z,9.84
2023-04-29T01:26:56.066Z,9.86
2023-04-29T01:29:40.921Z,9.81
2023-04-29T01:32:17.060Z,9.81
2023-04-29T01:35:01.357Z,9.80
2023-04-29T01:37:49.234Z,9.74
2023-04-29T01:40:43.148Z,9.83
2023-04-29T01:43:12.712Z,9.80
2023-04-29T01:45:44.084Z,9.88
2023-04-29T01:48:12.578Z,9.93
2023-04-29T01:50:39.702Z,10.05
2023-04-29T01:53:07.896Z,10.07
2023-04-29T01:55:34.928Z,10.05
2023-04-29T01:58:01.992Z,10.02
2023-04-29T02:00:29.121Z,10.07
2023-04-29T02:02:56.310Z,10.09
2023-04-29T02:05:24.308Z,10.11
2023-04-29T02:07:51.387Z,10.18
2023-04-29T02:10:18.483Z,10.03
2023-04-29T02:12:46.401Z,10.07
2023-04-29T02:15:13.517Z,10.14
2023-04-29T02:17:41.202Z,10.02
2023-04-29T02:20:10.234Z,10.17
2023-04-29T02:22:37.365Z,10.13
2023-04-29T02:25:05.015Z,10.13
2023-04-29T02:27:32.154Z,10.19
2023-04-29T02:29:59.253Z,10.17
2023-04-29T02:32:26.407Z,10.20
2023-04-29T02:34:54.037Z,10.25
2023-04-29T02:37:21.271Z,10.26
2023-04-29T02:39:48.464Z,10.24
2023-04-29T02:42:15.633Z,10.20
2023-04-29T02:44:42.790Z,10.25
2023-04-29T02:47:09.831Z,10.18
2023-04-29T02:49:36.940Z,10.31
2023-04-29T02:52:04.786Z,10.19
2023-04-29T02:54:31.942Z,10.14
2023-04-29T02:56:59.328Z,10.28
2023-04-29T02:59:26.509Z,10.18
2023-04-29T03:01:55.367Z,10.19
2023-04-29T03:04:23.973Z,10.36
2023-04-29T03:06:51.249Z,10.25
2023-04-29T03:09:18.373Z,10.29
2023-04-29T03:11:45.583Z,10.29
2023-04-29T03:14:12.682Z,10.30
2023-04-29T03:16:39.842Z,10.33
2023-04-29T03:19:07.262Z,10.34
2023-04-29T03:21:34.354Z,10.38
2023-04-29T03:24:01.539Z,10.31
2023-04-29T03:26:28.649Z,10.30
2023-04-29T03:28:55.801Z,10.25
2023-04-29T03:31:24.924Z,10.24
2023-04-29T03:33:53.981Z,10.30
2023-04-29T03:36:21.460Z,10.39
2023-04-29T03:38:48.609Z,10.44
2023-04-29T03:41:15.766Z,10.42
2023-04-29T03:43:44.198Z,10.35
2023-04-29T03:46:11.419Z,10.30
2023-04-29T03:48:38.640Z,10.22
2023-04-29T03:51:06.115Z,10.39
2023-04-29T03:53:33.321Z,10.24
2023-04-29T03:56:00.532Z,10.30
2023-04-29T03:58:27.661Z,10.35
2023-04-29T04:00:55.205Z,10.43
2023-04-29T04:03:24.198Z,10.50
2023-04-29T04:05:51.455Z,10.47
2023-04-29T04:08:18.670Z,10.27
2023-04-29T04:10:45.825Z,10.24
2023-04-29T04:13:14.271Z,10.32
2023-04-29T04:15:42.501Z,10.38
2023-04-29T04:18:09.649Z,10.42
2023-04-29T04:20:37.630Z,10.42
2023-04-29T04:23:05.124Z,10.37
2023-04-29T04:25:32.331Z,10.35
2023-04-29T04:27:59.461Z,10.39
2023-04-29T04:30:26.520Z,10.30
2023-04-29T04:32:54.099Z,10.30
2023-04-29T04:35:21.251Z,10.39
2023-04-29T04:37:48.493Z,10.43
2023-04-29T04:40:15.725Z,10.48
2023-04-29T04:42:42.884Z,10.36
2023-04-29T04:45:11.417Z,10.37
2023-04-29T04:47:41.359Z,10.30
2023-04-29T04:50:09.489Z,10.27
2023-04-29T04:52:36.618Z,10.35
2023-04-29T04:55:03.955Z,10.35
2023-04-29T04:57:31.082Z,10.32
2023-04-29T04:59:58.326Z,10.24
2023-04-29T05:02:25.882Z,10.34
2023-04-29T05:04:54.118Z,10.33
2023-04-29T05:07:21.189Z,10.36
2023-04-29T05:09:48.482Z,10.37
2023-04-29T05:12:15.883Z,10.44
2023-04-29T05:14:43.030Z,10.42
2023-04-29T05:17:11.285Z,10.44
2023-04-29T05:19:38.438Z,10.48
2023-04-29T05:22:05.560Z,10.48
2023-04-29T05:24:32.855Z,10.54
2023-04-29T05:26:59.961Z,10.58
2023-04-29T05:29:27.958Z,10.60
2023-04-29T05:31:57.831Z,10.58
2023-04-29T05:34:25.542Z,10.57
2023-04-29T05:36:52.762Z,10.62
2023-04-29T05:39:20.058Z,10.39
2023-04-29T05:41:47.192Z,10.41
2023-04-29T05:44:14.640Z,10.46
2023-04-29T05:46:41.811Z,10.48
2023-04-29T05:49:09.050Z,10.58
2023-04-29T05:51:36.220Z,10.66
2023-04-29T05:54:03.939Z,10.76
2023-04-29T05:56:31.604Z,10.84
2023-04-29T05:58:58.738Z,10.86
2023-04-29T06:01:25.811Z,10.84
2023-04-29T06:03:53.619Z,10.82
2023-04-29T06:06:21.405Z,10.82
2023-04-29T06:08:49.031Z,10.77
2023-04-29T06:11:16.229Z,10.81
2023-04-29T06:13:43.383Z,10.82
2023-04-29T06:16:12.219Z,10.76
2023-04-29T06:18:39.457Z,10.74
2023-04-29T06:21:06.594Z,10.89
2023-04-29T06:23:33.927Z,10.94
2023-04-29T06:26:01.505Z,10.83
2023-04-29T06:28:29.871Z,10.76
2023-04-29T06:30:58.499Z,10.75
2023-04-29T06:33:26.451Z,10.98
2023-04-29T06:35:57.330Z,11.11
2023-04-29T06:38:25.098Z,11.10
2023-04-29T06:40:52.769Z,11.06
2023-04-29T06:43:19.981Z,11.09
2023-04-29T06:45:47.392Z,11.08
2023-04-29T06:48:14.827Z,11.16
2023-04-29T06:50:52.892Z,10.99
2023-04-29T06:53:20.544Z,10.97
2023-04-29T06:55:48.175Z,11.18
2023-04-29T06:58:16.369Z,11.35
2023-04-29T07:00:48.447Z,11.33
2023-04-29T07:03:17.552Z,11.61
2023-04-29T07:05:48.529Z,11.83
2023-04-29T07:08:15.651Z,11.74
2023-04-29T07:10:42.749Z,11.76
2023-04-29T07:13:09.871Z,11.79
2023-04-29T07:15:37.333Z,11.97
2023-04-29T07:18:05.993Z,12.17
2023-04-29T07:20:33.498Z,12.16
2023-04-29T07:23:00.935Z,12.09
2023-04-29T07:25:29.440Z,11.94
2023-04-29T07:27:57.005Z,12.11
2023-04-29T07:30:24.282Z,11.95
2023-04-29T07:32:51.939Z,12.03
2023-04-29T07:35:19.419Z,11.94
2023-04-29T07:37:46.562Z,11.92
2023-04-29T07:40:13.845Z,12.03
2023-04-29T07:42:40.985Z,11.95
2023-04-29T07:45:08.527Z,12.16
2023-04-29T07:47:36.126Z,12.31
2023-04-29T07:50:05.834Z,12.28
2023-04-29T07:52:33.071Z,12.17
2023-04-29T07:55:00.235Z,11.90
2023-04-29T07:57:27.346Z,11.98
2023-04-29T07:59:57.529Z,12.19
2023-04-29T08:02:25.338Z,12.27
2023-04-29T08:04:56.287Z,12.28
2023-04-29T08:07:24.967Z,12.44
2023-04-29T08:09:52.724Z,12.65
2023-04-29T08:12:19.878Z,12.66
2023-04-29T08:14:46.977Z,12.62
2023-04-29T08:17:14.173Z,12.77
2023-04-29T08:19:41.413Z,12.81
2023-04-29T08:22:11.190Z,12.75
2023-04-29T08:24:38.410Z,12.95
2023-04-29T08:27:05.727Z,13.01
2023-04-29T08:29:33.347Z,13.06
2023-04-29T08:32:01.544Z,12.80
2023-04-29T08:34:28.847Z,12.62
2023-04-29T08:36:57.553Z,12.51
2023-04-29T08:39:26.108Z,12.49
2023-04-29T08:41:55.216Z,12.33
2023-04-29T08:44:23.056Z,12.38
2023-04-29T08:46:51.144Z,12.66
2023-04-29T08:49:18.606Z,12.87
2023-04-29T08:51:49.212Z,13.02
2023-04-29T08:54:16.401Z,13.08
2023-04-29T08:56:49.763Z,12.80
2023-04-29T08:59:20.988Z,12.69
2023-04-29T09:01:52.090Z,12.64
2023-04-29T09:04:47.346Z,13.06
2023-04-29T09:07:15.478Z,13.23
2023-04-29T09:09:43.402Z,13.17
2023-04-29T09:12:10.538Z,13.11
2023-04-29T09:14:37.692Z,13.37
2023-04-29T09:17:05.172Z,13.75
2023-04-29T09:19:34.127Z,13.84
2023-04-29T09:22:03.303Z,13.80
2023-04-29T09:24:31.714Z,13.55
2023-04-29T09:27:00.362Z,13.62
2023-04-29T09:29:27.594Z,13.49
2023-04-29T09:31:56.139Z,13.44
2023-04-29T09:34:35.971Z,13.42
2023-04-29T09:37:03.173Z,13.55
2023-04-29T09:39:39.839Z,13.38
2023-04-29T09:42:09.014Z,13.37
2023-04-29T09:44:36.229Z,13.34
2023-04-29T09:47:08.550Z,13.18
2023-04-29T09:49:38.345Z,13.38
2023-04-29T09:52:08.062Z,13.48
2023-04-29T09:54:36.635Z,13.63
2023-04-29T09:57:06.139Z,13.50
2023-04-29T09:59:37.803Z,13.57
2023-04-29T10:02:18.966Z,13.33
2023-04-29T10:04:48.452Z,13.20
2023-04-29T10:07:16.926Z,13.39
2023-04-29T10:09:48.233Z,13.41
2023-04-29T10:12:17.971Z,13.56
2023-04-29T10:14:55.734Z,13.77
2023-04-29T10:17:32.915Z,14.04
2023-04-29T10:20:09.071Z,13.92
2023-04-29T10:22:56.959Z,14.31
2023-04-29T10:25:27.961Z,14.52
2023-04-29T10:27:56.173Z,14.56
2023-04-29T10:30:23.602Z,14.27
2023-04-29T10:32:52.824Z,14.12
2023-04-29T10:35:24.040Z,13.98
2023-04-29T10:37:53.236Z,13.89
2023-04-29T10:40:47.715Z,14.01
2023-04-29T10:43:15.593Z,14.13
2023-04-29T10:45:42.837Z,14.19
2023-04-29T10:48:13.000Z,14.34
2023-04-29T10:50:49.157Z,14.40
2023-04-29T10:53:20.205Z,14.33
2023-04-29T10:55:48.657Z,14.28
2023-04-29T10:58:35.260Z,14.34
2023-04-29T11:01:02.863Z,14.39
2023-04-29T11:04:05.619Z,14.63
2023-04-29T11:06:35.426Z,14.69
2023-04-29T11:09:12.198Z,14.63
2023-04-29T11:11:42.990Z,14.69
2023-04-29T11:14:12.024Z,14.88
2023-04-29T11:16:48.362Z,14.91
2023-04-29T11:19:17.581Z,14.93
2023-04-29T11:21:47.175Z,15.00
2023-04-29T11:24:18.297Z,14.96
2023-04-29T11:26:46.546Z,15.31
2023-04-29T11:29:14.511Z,15.24
2023-04-29T11:31:42.078Z,15.46
2023-04-29T11:34:09.270Z,15.48
2023-04-29T11:36:36.783Z,15.56
2023-04-29T11:39:05.181Z,15.89
2023-04-29T11:41:32.524Z,15.91
2023-04-29T11:44:00.349Z,16.05
2023-04-29T11:46:31.224Z,16.26
2023-04-29T11:49:00.057Z,16.18
2023-04-29T11:51:28.603Z,16.19
2023-04-29T11:53:58.297Z,16.12
2023-04-29T11:56:27.959Z,16.14
2023-04-29T11:58:58.865Z,16.05
2023-04-29T12:01:27.202Z,15.81
2023-04-29T12:04:01.419Z,15.55
2023-04-29T12:06:30.360Z,15.56
2023-04-29T12:09:01.872Z,15.99
2023-04-29T12:11:29.309Z,16.51
2023-04-29T12:13:58.261Z,16.71
2023-04-29T12:16:29.380Z,16.85
2023-04-29T12:18:58.675Z,16.41
2023-04-29T12:21:27.474Z,16.33
2023-04-29T12:23:55.182Z,16.23
2023-04-29T12:26:22.472Z,16.45
2023-04-29T12:28:57.722Z,16.98
2023-04-29T12:31:35.855Z,17.18
2023-04-29T12:34:08.340Z,17.11
2023-04-29T12:36:37.769Z,16.40
2023-04-29T12:39:10.355Z,16.23
2023-04-29T12:41:40.089Z,16.26
2023-04-29T12:44:07.918Z,16.59
2023-04-29T12:46:37.775Z,16.85
2023-04-29T12:49:08.326Z,16.58
2023-04-29T12:51:35.757Z,16.89
2023-04-29T12:54:04.217Z,17.25
2023-04-29T12:56:31.848Z,17.29
2023-04-29T12:59:07.575Z,17.63
2023-04-29T13:01:35.565Z,17.44
2023-04-29T13:04:04.576Z,17.37
2023-04-29T13:06:32.947Z,16.91
2023-04-29T13:09:00.131Z,16.98
2023-04-29T13:11:32.571Z,17.12
2023-04-29T13:14:02.031Z,18.09
2023-04-29T13:16:29.551Z,18.76
2023-04-29T13:19:08.823Z,19.01
2023-04-29T13:21:39.913Z,18.62
2023-04-29T13:24:07.629Z,18.92
2023-04-29T13:26:35.122Z,18.50
2023-04-29T13:29:02.595Z,17.49
2023-04-29T13:31:30.027Z,17.22
2023-04-29T13:33:57.355Z,17.33
2023-04-29T13:36:24.653Z,17.40
2023-04-29T13:38:55.521Z,17.14
2023-04-29T13:41:23.365Z,17.05
2023-04-29T13:43:51.163Z,17.21
2023-04-29T13:46:20.638Z,17.69
2023-04-29T14:02:08.022Z,20.06
2023-04-29T14:04:07.376Z,19.73
2023-04-29T14:06:35.505Z,19.18
2023-04-29T14:09:04.300Z,19.01
2023-04-29T14:11:36.477Z,19.75
2023-04-29T14:14:04.082Z,19.66
2023-04-29T14:16:31.214Z,20.12
2023-04-29T14:18:59.200Z,20.21
2023-04-29T14:21:27.971Z,20.22
2023-04-29T14:23:55.613Z,20.03
2023-04-29T14:26:28.373Z,19.60
2023-04-29T14:28:59.675Z,19.38
2023-04-29T14:31:29.185Z,19.45
2023-04-29T14:33:57.545Z,20.21
2023-04-29T14:36:25.461Z,20.41
2023-04-29T14:38:54.166Z,20.16
2023-04-29T14:41:24.216Z,20.11
2023-04-29T14:43:51.682Z,20.02
2023-04-29T14:46:19.715Z,20.24
2023-04-29T14:48:46.910Z,19.89
2023-04-29T14:51:14.236Z,19.44
2023-04-29T14:53:41.362Z,19.26
2023-04-29T14:56:08.522Z,19.57
2023-04-29T14:58:35.666Z,20.13
2023-04-29T15:01:02.885Z,19.83
2023-04-29T15:03:30.412Z,19.54
2023-04-29T15:05:58.969Z,20.26
2023-04-29T15:08:26.260Z,19.46
2023-04-29T15:10:53.469Z,19.27
2023-04-29T15:13:20.511Z,18.72
2023-04-29T15:15:48.516Z,18.56
2023-04-29T15:18:16.123Z,18.02
2023-04-29T15:20:43.225Z,18.03
2023-04-29T15:23:11.293Z,17.83
2023-04-29T15:25:38.754Z,17.98
2023-04-29T15:28:06.028Z,17.60
2023-04-29T15:30:34.107Z,18.02
2023-04-29T15:33:01.781Z,18.30
2023-04-29T15:35:29.312Z,18.43
2023-04-29T15:37:56.997Z,18.81
2023-04-29T15:40:24.514Z,18.82
2023-04-29T15:42:52.502Z,18.32
2023-04-29T15:45:20.237Z,18.48
2023-04-29T15:47:48.356Z,17.96
2023-04-29T15:50:15.602Z,17.98
2023-04-29T15:52:43.742Z,17.64
2023-04-29T15:55:12.477Z,18.00
2023-04-29T15:57:41.604Z,18.01
2023-04-29T16:00:09.693Z,18.04
2023-04-29T16:02:37.192Z,18.16
2023-04-29T16:05:05.589Z,18.44
2023-04-29T16:07:34.855Z,18.48
2023-04-29T16:10:02.931Z,18.57
2023-04-29T16:12:30.512Z,19.14
2023-04-29T16:14:57.770Z,19.06
2023-04-29T16:17:25.924Z,18.43
2023-04-29T16:19:54.574Z,18.27
2023-04-29T16:22:22.256Z,18.67
2023-04-29T16:24:49.986Z,18.84
2023-04-29T16:27:17.726Z,18.77
2023-04-29T16:29:44.868Z,18.96
2023-04-29T16:32:11.896Z,18.69
2023-04-29T16:34:38.996Z,18.78
2023-04-29T16:37:12.221Z,18.56
2023-04-29T16:39:40.199Z,18.35
2023-04-29T16:42:07.387Z,17.97
2023-04-29T16:44:34.995Z,18.56
2023-04-29T16:47:03.113Z,18.12
2023-04-29T16:49:31.292Z,18.15
2023-04-29T16:51:58.591Z,18.70
2023-04-29T16:54:26.415Z,18.40
2023-04-29T16:56:53.762Z,18.71
2023-04-29T16:59:20.871Z,18.26
2023-04-29T17:01:47.993Z,18.26
2023-04-29T17:04:15.533Z,18.41
2023-04-29T17:06:43.030Z,18.09
2023-04-29T17:09:10.172Z,18.08
2023-04-29T17:11:37.251Z,17.59
2023-04-29T17:14:04.933Z,17.30
2023-04-29T17:16:33.028Z,16.58
2023-04-29T17:19:00.361Z,16.17
2023-04-29T17:21:28.475Z,15.86
2023-04-29T17:23:55.647Z,15.51
2023-04-29T17:26:23.323Z,15.28
2023-04-29T17:28:50.503Z,15.16
2023-04-29T17:31:20.505Z,14.95
2023-04-29T17:33:55.485Z,14.93
2023-04-29T17:36:23.092Z,14.60
2023-04-29T17:38:50.148Z,14.49
2023-04-29T17:41:17.315Z,14.29
2023-04-29T17:43:44.363Z,14.14
2023-04-29T17:46:11.580Z,14.27
2023-04-29T17:48:38.714Z,14.19
2023-04-29T17:51:05.968Z,14.06
2023-04-29T17:53:33.269Z,13.92
2023-04-29T17:56:00.743Z,13.82
2023-04-29T17:58:29.009Z,13.75
2023-04-29T18:00:56.676Z,13.80
2023-04-29T18:03:24.361Z,13.80
2023-04-29T18:05:51.474Z,13.83
2023-04-29T18:08:18.596Z,13.81
2023-04-29T18:10:45.814Z,13.64
2023-04-29T18:13:12.945Z,13.64
2023-04-29T18:15:40.060Z,13.50
2023-04-29T18:18:08.017Z,13.55
2023-04-29T18:20:35.421Z,13.52
2023-04-29T18:23:02.802Z,13.40
2023-04-29T18:25:30.115Z,13.27
2023-04-29T18:28:07.495Z,13.22
2023-04-29T18:30:40.534Z,13.16
2023-04-29T18:33:07.915Z,13.19
2023-04-29T18:35:35.222Z,13.11
2023-04-29T18:38:02.480Z,12.93
2023-04-29T18:40:29.631Z,12.88
2023-04-29T18:42:56.752Z,12.70
2023-04-29T18:45:24.442Z,12.64
2023-04-29T18:47:51.598Z,12.50
2023-04-29T18:50:18.788Z,12.49
2023-04-29T18:52:45.918Z,12.34
2023-04-29T18:55:13.692Z,12.28
2023-04-29T18:57:40.837Z,12.22
2023-04-29T19:00:08.592Z,12.09
2023-04-29T19:02:37.292Z,12.07
2023-04-29T19:05:09.200Z,11.99
2023-04-29T19:07:36.371Z,11.93
2023-04-29T19:10:04.213Z,11.88
2023-04-29T19:12:31.556Z,11.81
2023-04-29T19:14:59.256Z,11.75
2023-04-29T19:17:26.814Z,11.76
2023-04-29T19:19:54.749Z,11.63
2023-04-29T19:22:22.333Z,11.47
2023-04-29T19:24:49.549Z,11.45
2023-04-29T19:27:16.714Z,11.29
2023-04-29T19:29:43.802Z,11.30
2023-04-29T19:32:11.044Z,11.05
2023-04-29T19:34:38.173Z,10.99
2023-04-29T19:37:05.607Z,10.97
2023-04-29T19:39:34.108Z,10.92
2023-04-29T19:42:01.235Z,10.88
2023-04-29T19:44:28.312Z,10.89
2023-04-29T19:46:55.522Z,10.89
2023-04-29T19:49:22.736Z,10.74
2023-04-29T19:51:52.079Z,10.82
2023-04-29T19:54:19.927Z,10.80
2023-04-29T19:56:47.019Z,10.72
2023-04-29T19:59:14.175Z,10.75
2023-04-29T20:01:41.360Z,10.71
2023-04-29T20:04:09.577Z,10.76
2023-04-29T20:06:37.896Z,10.67
2023-04-29T20:09:09.357Z,10.67
2023-04-29T20:11:36.558Z,10.67
2023-04-29T20:14:04.078Z,10.57
2023-04-29T20:16:32.125Z,10.55
2023-04-29T20:18:59.287Z,10.48
2023-04-29T20:21:27.509Z,10.43
2023-04-29T20:23:55.186Z,10.40
2023-04-29T20:26:22.361Z,10.42
2023-04-29T20:28:49.510Z,10.30
2023-04-29T20:31:16.905Z,10.37
2023-04-29T20:33:43.982Z,10.35
2023-04-29T20:36:11.160Z,10.32
2023-04-29T20:38:38.238Z,10.27
2023-04-29T20:41:08.447Z,10.29
2023-04-29T20:43:35.798Z,10.26
2023-04-29T20:46:03.125Z,10.16
2023-04-29T20:48:30.314Z,10.17
2023-04-29T20:50:57.429Z,10.09
2023-04-29T20:53:25.757Z,10.07
2023-04-29T20:55:57.992Z,10.08
2023-04-29T20:58:25.055Z,10.13
2023-04-29T21:00:52.279Z,10.12
2023-04-29T21:03:22.308Z,10.11
2023-04-29T21:05:56.500Z,10.08
2023-04-29T21:08:24.798Z,10.05
2023-04-29T21:10:53.902Z,10.12
2023-04-29T21:13:21.205Z,10.08
2023-04-29T21:15:48.294Z,10.05
2023-04-29T21:18:15.483Z,10.01
2023-04-29T21:20:42.668Z,9.94
2023-04-29T21:23:09.876Z,9.91
2023-04-29T21:25:37.093Z,9.81
2023-04-29T21:28:04.811Z,9.88
2023-04-29T21:30:31.969Z,9.83
2023-04-29T21:32:59.084Z,9.85
2023-04-29T21:35:26.650Z,9.87
2023-04-29T21:37:53.897Z,9.83
2023-04-29T21:40:21.229Z,9.76
2023-04-29T21:42:49.447Z,9.79
2023-04-29T21:45:16.878Z,9.74
2023-04-29T21:47:44.763Z,9.74
2023-04-29T21:50:12.122Z,9.75
2023-04-29T21:52:39.228Z,9.77
2023-04-29T21:55:07.043Z,9.73
2023-04-29T21:57:43.531Z,9.71
2023-04-29T22:00:28.426Z,9.69
2023-04-29T22:02:55.663Z,9.73
2023-04-29T22:05:23.928Z,9.66
2023-04-29T22:07:51.110Z,9.60
2023-04-29T22:10:18.619Z,9.56
2023-04-29T22:12:45.791Z,9.48
2023-04-29T22:15:26.888Z,9.57
2023-04-29T22:17:55.666Z,9.60
2023-04-29T22:20:23.487Z,9.58
2023-04-29T22:22:50.595Z,9.64
2023-04-29T22:25:19.714Z,9.63
2023-04-29T22:27:46.960Z,9.64
2023-04-29T22:30:14.250Z,9.59
2023-04-29T22:32:41.448Z,9.58
2023-04-29T22:35:08.651Z,9.61
2023-04-29T22:37:36.143Z,9.55
2023-04-29T22:40:03.374Z,9.46
2023-04-29T22:42:30.446Z,9.41
2023-04-29T22:44:57.552Z,9.39
2023-04-29T22:47:25.089Z,9.29
2023-04-29T22:49:52.499Z,9.34
2023-04-29T22:52:19.883Z,9.33
2023-04-29T22:54:46.955Z,9.33
2023-04-29T22:57:14.077Z,9.31
2023-04-29T22:59:41.153Z,9.27
2023-04-29T23:02:08.453Z,9.21
2023-04-29T23:04:35.634Z,9.19
2023-04-29T23:07:02.899Z,9.13
2023-04-29T23:09:29.993Z,9.10
2023-04-29T23:11:57.754Z,9.07
2023-04-29T23:14:25.286Z,9.01
2023-04-29T23:16:53.809Z,9.00
2023-04-29T23:19:21.320Z,8.98
2023-04-29T23:21:48.948Z,8.91
2023-04-29T23:24:16.125Z,8.91
2023-04-29T23:26:43.280Z,8.90
2023-04-29T23:29:10.773Z,8.91
2023-04-29T23:31:37.882Z,8.90
2023-04-29T23:34:05.550Z,8.92
2023-04-29T23:36:32.618Z,8.86
2023-04-29T23:38:59.790Z,8.78
2023-04-29T23:41:26.841Z,8.62
2023-04-29T23:43:54.859Z,8.62
2023-04-29T23:46:22.456Z,8.65
2023-04-29T23:48:49.611Z,8.66
2023-04-29T23:51:17.286Z,8.67
2023-04-29T23:53:44.365Z,8.66
2023-04-29T23:56:11.761Z,8.66
2023-04-29T23:58:39.083Z,8.65
